Time;durP1;ratioP1;P1;durP2;ratioP2;P2;SDS_P1;SDS_P2;PMS_P1;PMS_P2;Temp;Humidity;BMP_temperature;BMP_pressure;BME280_temperature;BME280_humidity;BME280_pressure;Samples;Min_cycle;Max_cycle;Signal;HPM_P1;HPM_P2
2022/11/19 00:02:17;;;;;;;;;;;;;;;;;;4907152;29;19935;-75
2022/11/19 00:05:03;;;;;;;;;;;;;;;;;;4908999;29;20390;-74
2022/11/19 00:07:49;;;;;;;;;;;;;;;;;;4899743;29;19916;-74
2022/11/19 00:10:36;;;;;;;;;;;;;;;;;;4898862;29;20291;-74
2022/11/19 00:13:22;;;;;;;;;;;;;;;;;;4913140;29;19927;-74
2022/11/19 00:16:09;;;;;;;;;;;;;;;;;;4901324;29;20292;-74
2022/11/19 00:18:55;;;;;;;;;;;;;;;;;;4899360;29;19926;-75
2022/11/19 00:21:42;;;;;;;;;;;;;;;;;;4901007;29;19934;-77
2022/11/19 00:24:28;;;;;;;;;;;;;;;;;;4901222;29;19938;-75
2022/11/19 00:27:15;;;;;;;;;;;;;;;;;;4901864;29;19919;-74
2022/11/19 00:30:01;;;;;;;;;;;;;;;;;;4900767;29;19921;-74
2022/11/19 00:32:48;;;;;;;;;;;;;;;;;;4906250;29;19915;-74
2022/11/19 00:35:34;;;;;;;;;;;;;;;;;;4902841;29;19915;-74
2022/11/19 00:38:21;;;;;;;;;;;;;;;;;;4900180;29;19911;-74
2022/11/19 00:41:07;;;;;;;;;;;;;;;;;;4906303;29;19915;-74
2022/11/19 00:43:54;;;;;;;;;;;;;;;;;;4910226;29;19916;-74
2022/11/19 00:46:40;;;;;;;;;;;;;;;;;;4906675;29;20276;-74
2022/11/19 00:49:27;;;;;;;;;;;;;;;;;;4906606;29;19912;-74
2022/11/19 00:52:13;;;;;;;;;;;;;;;;;;4908649;29;19915;-74
2022/11/19 00:54:59;;;;;;;;;;;;;;;;;;4903230;29;19912;-75
2022/11/19 00:57:46;;;;;;;;;;;;;;;;;;4902417;29;19919;-75
2022/11/19 01:00:32;;;;;;;;;;;;;;;;;;4905322;29;19920;-75
2022/11/19 01:03:19;;;;;;;;;;;;;;;;;;4909365;29;19933;-74
2022/11/19 01:06:05;;;;;;;;;;;;;;;;;;4898969;29;19926;-74
2022/11/19 01:08:52;;;;;;;;;;;;;;;;;;4899940;29;19918;-74
2022/11/19 01:11:38;;;;;;;;;;;;;;;;;;4920267;29;20001;-74
2022/11/19 01:14:25;;;;;;;;;;;;;;;;;;4907376;29;19912;-75
2022/11/19 01:17:11;;;;;;;;;;;;;;;;;;4907263;29;19911;-75
2022/11/19 01:19:58;;;;;;;;;;;;;;;;;;4906567;29;19918;-75
2022/11/19 01:22:45;;;;;;;;;;;;;;;;;;4899977;29;19919;-75
2022/11/19 01:25:31;;;;;;;;;;;;;;;;;;4908564;29;20012;-75
2022/11/19 01:28:18;;;;;;;;;;;;;;;;;;4899956;29;19934;-75
2022/11/19 01:31:04;;;;;;;;;;;;;;;;;;4901584;29;19922;-75
2022/11/19 01:33:51;;;;;;;;;;;;;;;;;;4902134;29;19922;-74
2022/11/19 01:36:37;;;;;;;;;;;;;;;;;;4900103;29;20261;-74
2022/11/19 01:39:23;;;;;;;;;;;;;;;;;;4899310;29;19921;-76
2022/11/19 01:42:48;;;;;;;;;;;;;;;;;;4906108;29;19923;-76
2022/11/19 01:45:16;;;;;;;;;;;;;;;;;;4907144;29;19923;-76
2022/11/19 01:48:03;;;;;;;;;;;;;;;;;;4895383;29;20301;-76
2022/11/19 01:50:50;;;;;;;;;;;;;;;;;;4897980;29;19919;-77
2022/11/19 01:53:36;;;;;;;;;;;;;;;;;;4907612;29;19920;-77
2022/11/19 01:56:23;;;;;;;;;;;;;;;;;;4904016;29;20395;-77
2022/11/19 01:59:09;;;;;;;;;;;;;;;;;;4899788;29;19957;-76
2022/11/19 02:01:56;;;;;;;;;;;;;;;;;;4904816;29;19935;-76
2022/11/19 02:04:42;;;;;;;;;;;;;;;;;;4906926;29;20426;-76
2022/11/19 02:07:30;;;;;;;;;;;;;;;;;;4904112;29;19915;-76
2022/11/19 02:10:16;;;;;;;;;;;;;;;;;;4905414;29;19919;-75
2022/11/19 02:13:03;;;;;;;;;;;;;;;;;;4906718;29;19917;-76
2022/11/19 02:15:49;;;;;;;;;;;;;;;;;;4905306;29;19915;-76
2022/11/19 02:18:36;;;;;;;;;;;;;;;;;;4906721;29;19939;-76
2022/11/19 02:21:22;;;;;;;;;;;;;;;;;;4910517;29;19917;-75
2022/11/19 02:24:09;;;;;;;;;;;;;;;;;;4899833;29;19919;-75
2022/11/19 02:26:55;;;;;;;;;;;;;;;;;;4909186;29;19915;-75
2022/11/19 02:29:42;;;;;;;;;;;;;;;;;;4898793;29;19937;-74
2022/11/19 02:32:28;;;;;;;;;;;;;;;;;;4902216;29;19922;-75
2022/11/19 02:35:15;;;;;;;;;;;;;;;;;;4895688;29;19912;-75
2022/11/19 02:38:01;;;;;;;;;;;;;;;;;;4896891;29;20489;-75
2022/11/19 02:40:48;;;;;;;;;;;;;;;;;;4898864;29;19922;-75
2022/11/19 02:43:35;;;;;;;;;;;;;;;;;;4910762;29;19922;-75
2022/11/19 02:46:21;;;;;;;;;;;;;;;;;;4901951;29;19923;-75
2022/11/19 02:49:08;;;;;;;;;;;;;;;;;;4895367;29;19926;-75
2022/11/19 02:51:54;;;;;;;;;;;;;;;;;;4905193;29;19915;-75
2022/11/19 02:54:40;;;;;;;;;;;;;;;;;;4893841;29;19939;-75
2022/11/19 02:57:27;;;;;;;;;;;;;;;;;;4903094;29;19947;-75
2022/11/19 03:06:24;;;;;;;;;;;;;;;;;;4902485;29;19924;-75
2022/11/19 03:09:11;;;;;;;;;;;;;;;;;;4900116;29;19911;-75
2022/11/19 03:11:57;;;;;;;;;;;;;;;;;;4910621;29;19911;-75
2022/11/19 03:17:49;;;;;;;;;;;;;;;;;;4906557;29;19915;-75
2022/11/19 03:20:35;;;;;;;;;;;;;;;;;;4902708;29;19923;-75
2022/11/19 03:23:22;;;;;;;;;;;;;;;;;;4911306;29;19916;-76
2022/11/19 03:26:08;;;;;;;;;;;;;;;;;;4895227;29;19923;-76
2022/11/19 03:28:55;;;;;;;;;;;;;;;;;;4899113;29;19921;-75
2022/11/19 03:31:41;;;;;;;;;;;;;;;;;;4908203;29;20451;-76
2022/11/19 03:34:28;;;;;;;;;;;;;;;;;;4902051;29;20012;-76
2022/11/19 03:37:14;;;;;;;;;;;;;;;;;;4908369;29;19922;-76
2022/11/19 03:40:00;;;;;;;;;;;;;;;;;;4900063;29;19922;-76
2022/11/19 03:42:47;;;;;;;;;;;;;;;;;;4900511;29;19922;-76
2022/11/19 03:45:33;;;;;;;;;;;;;;;;;;4905235;29;20368;-76
2022/11/19 03:48:20;;;;;;;;;;;;;;;;;;4901094;29;19912;-76
2022/11/19 03:51:06;;;;;;;;;;;;;;;;;;4905414;29;20344;-76
2022/11/19 03:53:53;;;;;;;;;;;;;;;;;;4908797;29;19930;-76
2022/11/19 03:56:39;;;;;;;;;;;;;;;;;;4908018;29;19922;-76
2022/11/19 03:59:26;;;;;;;;;;;;;;;;;;4902061;29;19920;-76
2022/11/19 04:02:12;;;;;;;;;;;;;;;;;;4902255;29;19934;-76
2022/11/19 04:04:59;;;;;;;;;;;;;;;;;;4908983;29;19923;-76
2022/11/19 04:07:45;;;;;;;;;;;;;;;;;;4904232;29;20280;-76
2022/11/19 04:10:32;;;;;;;;;;;;;;;;;;4907401;29;19923;-76
2022/11/19 04:13:18;;;;;;;;;;;;;;;;;;4904063;29;20291;-76
2022/11/19 04:16:04;;;;;;;;;;;;;;;;;;4914923;29;19915;-75
2022/11/19 04:18:51;;;;;;;;;;;;;;;;;;4909274;29;20387;-76
2022/11/19 04:21:37;;;;;;;;;;;;;;;;;;4900841;29;19915;-75
2022/11/19 04:24:24;;;;;;;;;;;;;;;;;;4908542;29;19926;-75
2022/11/19 04:27:10;;;;;;;;;;;;;;;;;;4896642;29;19915;-75
2022/11/19 04:29:57;;;;;;;;;;;;;;;;;;4908354;29;20379;-75
2022/11/19 04:32:43;;;;;;;;;;;;;;;;;;4897488;29;20295;-75
2022/11/19 04:35:30;;;;;;;;;;;;;;;;;;4909493;29;19919;-75
2022/11/19 04:38:16;;;;;;;;;;;;;;;;;;4908286;29;19922;-76
2022/11/19 04:41:03;;;;;;;;;;;;;;;;;;4904716;29;19915;-75
2022/11/19 04:43:49;;;;;;;;;;;;;;;;;;4911449;29;19919;-75
2022/11/19 04:46:36;;;;;;;;;;;;;;;;;;4910915;29;20367;-75
2022/11/19 04:49:22;;;;;;;;;;;;;;;;;;4903754;29;19962;-76
2022/11/19 04:52:09;;;;;;;;;;;;;;;;;;4914097;29;19923;-76
2022/11/19 04:54:55;;;;;;;;;;;;;;;;;;4911702;29;19916;-75
2022/11/19 04:57:41;;;;;;;;;;;;;;;;;;4904731;29;19915;-75
2022/11/19 05:00:28;;;;;;;;;;;;;;;;;;4905427;29;20347;-75
2022/11/19 05:03:14;;;;;;;;;;;;;;;;;;4897553;29;19927;-75
2022/11/19 05:06:01;;;;;;;;;;;;;;;;;;4901600;29;20028;-75
2022/11/19 05:08:47;;;;;;;;;;;;;;;;;;4905129;29;19923;-76
2022/11/19 05:11:34;;;;;;;;;;;;;;;;;;4898079;29;20312;-75
2022/11/19 05:14:20;;;;;;;;;;;;;;;;;;4895786;29;19911;-76
2022/11/19 05:17:07;;;;;;;;;;;;;;;;;;4906566;29;19923;-75
2022/11/19 05:19:53;;;;;;;;;;;;;;;;;;4906693;29;19912;-75
2022/11/19 05:22:40;;;;;;;;;;;;;;;;;;4909110;29;19919;-76
2022/11/19 05:25:26;;;;;;;;;;;;;;;;;;4905828;29;19919;-75
2022/11/19 05:28:13;;;;;;;;;;;;;;;;;;4901599;29;19942;-75
2022/11/19 05:30:59;;;;;;;;;;;;;;;;;;4904980;29;19915;-75
2022/11/19 05:33:46;;;;;;;;;;;;;;;;;;4909162;29;19912;-75
2022/11/19 05:36:32;;;;;;;;;;;;;;;;;;4905760;29;19915;-75
2022/11/19 05:39:19;;;;;;;;;;;;;;;;;;4912644;29;20290;-76
2022/11/19 05:42:05;;;;;;;;;;;;;;;;;;4901744;29;19915;-74
2022/11/19 05:44:52;;;;;;;;;;;;;;;;;;4907994;29;19923;-73
2022/11/19 05:47:38;;;;;;;;;;;;;;;;;;4906022;29;19926;-73
2022/11/19 05:50:25;;;;;;;;;;;;;;;;;;4907657;29;20324;-74
2022/11/19 05:53:11;;;;;;;;;;;;;;;;;;4911597;29;19915;-73
2022/11/19 05:55:58;;;;;;;;;;;;;;;;;;4901091;29;19915;-73
2022/11/19 05:58:44;;;;;;;;;;;;;;;;;;4904788;29;20288;-74
2022/11/19 06:01:31;;;;;;;;;;;;;;;;;;4910540;29;19915;-73
2022/11/19 06:04:17;;;;;;;;;;;;;;;;;;4901513;29;20331;-73
2022/11/19 06:07:03;;;;;;;;;;;;;;;;;;4901691;29;19927;-73
2022/11/19 06:09:50;;;;;;;;;;;;;;;;;;4899787;29;19915;-73
2022/11/19 06:12:36;;;;;;;;;;;;;;;;;;4904463;29;19943;-73
2022/11/19 06:15:23;;;;;;;;;;;;;;;;;;4906709;29;19934;-73
2022/11/19 06:18:09;;;;;;;;;;;;;;;;;;4897020;29;19926;-73
2022/11/19 06:20:56;;;;;;;;;;;;;;;;;;4902285;29;20394;-75
2022/11/19 06:23:42;;;;;;;;;;;;;;;;;;4901257;29;19934;-76
2022/11/19 06:26:29;;;;;;;;;;;;;;;;;;4898759;29;19924;-75
2022/11/19 06:29:15;;;;;;;;;;;;;;;;;;4910249;29;19918;-75
2022/11/19 06:32:02;;;;;;;;;;;;;;;;;;4905071;29;20573;-75
2022/11/19 06:34:48;;;;;;;;;;;;;;;;;;4900412;29;19922;-75
2022/11/19 06:37:35;;;;;;;;;;;;;;;;;;4909577;29;19918;-76
2022/11/19 06:40:21;;;;;;;;;;;;;;;;;;4908706;29;19926;-76
2022/11/19 06:43:08;;;;;;;;;;;;;;;;;;4903968;29;19918;-76
2022/11/19 06:45:54;;;;;;;;;;;;;;;;;;4907322;29;20415;-76
2022/11/19 06:48:41;;;;;;;;;;;;;;;;;;4911951;29;19915;-76
2022/11/19 06:51:27;;;;;;;;;;;;;;;;;;4898751;29;20397;-76
2022/11/19 06:54:13;;;;;;;;;;;;;;;;;;4900097;29;19912;-76
2022/11/19 06:57:00;;;;;;;;;;;;;;;;;;4902300;29;19933;-75
2022/11/19 06:59:46;;;;;;;;;;;;;;;;;;4912977;29;19918;-75
2022/11/19 07:02:33;;;;;;;;;;;;;;;;;;4910888;29;20298;-76
2022/11/19 07:05:19;;;;;;;;;;;;;;;;;;4905414;29;19934;-76
2022/11/19 07:08:06;;;;;;;;;;;;;;;;;;4906144;29;19915;-76
2022/11/19 07:10:52;;;;;;;;;;;;;;;;;;4902174;29;19923;-75
2022/11/19 07:14:02;;;;;;;;;;;;;;;;;;4911746;29;19915;-76
2022/11/19 07:16:45;;;;;;;;;;;;;;;;;;4910728;29;19920;-76
2022/11/19 07:19:32;;;;;;;;;;;;;;;;;;4894847;29;19912;-76
2022/11/19 07:22:18;;;;;;;;;;;;;;;;;;4907585;29;19915;-76
2022/11/19 07:25:05;;;;;;;;;;;;;;;;;;4907510;29;19919;-77
2022/11/19 07:27:51;;;;;;;;;;;;;;;;;;4922398;29;19918;-77
2022/11/19 07:30:38;;;;;;;;;;;;;;;;;;4900877;29;19920;-76
2022/11/19 07:33:24;;;;;;;;;;;;;;;;;;4914283;29;19915;-75
2022/11/19 07:36:11;;;;;;;;;;;;;;;;;;4908293;29;19915;-75
2022/11/19 07:38:57;;;;;;;;;;;;;;;;;;4914284;29;19915;-75
2022/11/19 07:44:49;;;;;;;;;;;;;;;;;;4903116;29;19923;-75
2022/11/19 07:47:35;;;;;;;;;;;;;;;;;;4915384;29;19918;-75
2022/11/19 07:50:22;;;;;;;;;;;;;;;;;;4910035;29;19911;-75
2022/11/19 07:53:09;;;;;;;;;;;;;;;;;;4904195;29;19919;-74
2022/11/19 07:55:55;;;;;;;;;;;;;;;;;;4903865;29;19911;-76
2022/11/19 07:58:41;;;;;;;;;;;;;;;;;;4905677;29;19911;-77
2022/11/19 08:01:28;;;;;;;;;;;;;;;;;;4913329;29;19931;-76
2022/11/19 08:04:14;;;;;;;;;;;;;;;;;;4907943;29;19931;-75
2022/11/19 08:07:01;;;;;;;;;;;;;;;;;;4912611;29;19923;-76
2022/11/19 08:09:48;;;;;;;;;;;;;;;;;;4906506;29;19919;-76
2022/11/19 08:12:34;;;;;;;;;;;;;;;;;;4900389;29;19923;-76
2022/11/19 08:15:20;;;;;;;;;;;;;;;;;;4899990;29;19918;-76
2022/11/19 08:18:14;;;;;;;;;;;;;;;;;;4907131;29;20037;-76
2022/11/19 08:21:01;;;;;;;;;;;;;;;;;;4902896;29;19923;-76
2022/11/19 08:23:47;;;;;;;;;;;;;;;;;;4900091;29;19924;-75
2022/11/19 08:26:34;;;;;;;;;;;;;;;;;;4905033;29;19942;-76
2022/11/19 08:29:22;;;;;;;;;;;;;;;;;;4906128;29;19912;-76
2022/11/19 08:32:09;;;;;;;;;;;;;;;;;;4901679;29;19927;-75
2022/11/19 08:34:55;;;;;;;;;;;;;;;;;;4897105;29;19912;-79
2022/11/19 08:37:42;;;;;;;;;;;;;;;;;;4902762;29;20415;-76
2022/11/19 08:40:28;;;;;;;;;;;;;;;;;;4905271;29;19925;-75
2022/11/19 08:43:14;;;;;;;;;;;;;;;;;;4901181;29;20473;-76
2022/11/19 08:46:01;;;;;;;;;;;;;;;;;;4900119;29;19919;-76
2022/11/19 08:48:47;;;;;;;;;;;;;;;;;;4902937;29;20345;-76
2022/11/19 08:51:34;;;;;;;;;;;;;;;;;;4901800;29;20368;-76
2022/11/19 08:54:20;;;;;;;;;;;;;;;;;;4904174;29;19911;-76
2022/11/19 08:57:07;;;;;;;;;;;;;;;;;;4903846;29;19919;-75
2022/11/19 08:59:53;;;;;;;;;;;;;;;;;;4909893;29;20363;-76
2022/11/19 09:02:40;;;;;;;;;;;;;;;;;;4908100;29;19967;-76
2022/11/19 09:05:27;;;;;;;;;;;;;;;;;;4907596;29;19926;-76
2022/11/19 09:08:13;;;;;;;;;;;;;;;;;;4907587;29;19911;-76
2022/11/19 09:10:59;;;;;;;;;;;;;;;;;;4904640;29;20638;-76
2022/11/19 09:13:46;;;;;;;;;;;;;;;;;;4908689;29;19918;-76
2022/11/19 09:16:32;;;;;;;;;;;;;;;;;;4911607;29;19937;-75
2022/11/19 09:19:19;;;;;;;;;;;;;;;;;;4913401;29;20415;-76
2022/11/19 09:22:05;;;;;;;;;;;;;;;;;;4902031;29;19911;-76
2022/11/19 09:24:52;;;;;;;;;;;;;;;;;;4907836;29;19922;-75
2022/11/19 09:27:38;;;;;;;;;;;;;;;;;;4906316;29;19934;-75
2022/11/19 09:30:25;;;;;;;;;;;;;;;;;;4902040;29;19915;-76
2022/11/19 09:33:11;;;;;;;;;;;;;;;;;;4909724;29;19934;-78
2022/11/19 09:35:58;;;;;;;;;;;;;;;;;;4909011;29;19916;-76
2022/11/19 09:38:44;;;;;;;;;;;;;;;;;;4900183;29;19916;-76
2022/11/19 09:41:31;;;;;;;;;;;;;;;;;;4911762;29;19915;-75
2022/11/19 09:44:17;;;;;;;;;;;;;;;;;;4912627;29;20021;-76
2022/11/19 09:47:04;;;;;;;;;;;;;;;;;;4901430;29;19931;-76
2022/11/19 09:49:50;;;;;;;;;;;;;;;;;;4907069;29;19923;-75
2022/11/19 09:52:37;;;;;;;;;;;;;;;;;;4894289;29;19915;-76
2022/11/19 09:55:23;;;;;;;;;;;;;;;;;;4896905;29;19922;-76
2022/11/19 09:58:10;;;;;;;;;;;;;;;;;;4897209;29;19926;-76
2022/11/19 10:00:58;;;;;;;;;;;;;;;;;;4899270;29;20291;-76
2022/11/19 10:03:44;;;;;;;;;;;;;;;;;;4903491;29;19933;-76
2022/11/19 10:06:31;;;;;;;;;;;;;;;;;;4900557;29;19930;-76
2022/11/19 10:09:17;;;;;;;;;;;;;;;;;;4902611;29;19967;-76
2022/11/19 10:12:04;;;;;;;;;;;;;;;;;;4904125;29;19937;-76
2022/11/19 10:14:50;;;;;;;;;;;;;;;;;;4908733;29;19918;-76
2022/11/19 10:17:37;;;;;;;;;;;;;;;;;;4897515;29;20287;-76
2022/11/19 10:20:23;;;;;;;;;;;;;;;;;;4902002;29;19915;-75
2022/11/19 10:23:10;;;;;;;;;;;;;;;;;;4909943;29;20325;-76
2022/11/19 10:25:56;;;;;;;;;;;;;;;;;;4905568;29;19923;-76
2022/11/19 10:28:42;;;;;;;;;;;;;;;;;;4898945;29;20503;-76
2022/11/19 10:31:29;;;;;;;;;;;;;;;;;;4899570;29;19919;-76
2022/11/19 10:34:15;;;;;;;;;;;;;;;;;;4909309;29;19930;-76
2022/11/19 10:37:02;;;;;;;;;;;;;;;;;;4902294;29;19930;-75
2022/11/19 10:39:48;;;;;;;;;;;;;;;;;;4908900;29;19919;-76
2022/11/19 10:42:35;;;;;;;;;;;;;;;;;;4911576;29;20312;-76
2022/11/19 10:45:21;;;;;;;;;;;;;;;;;;4900625;29;19919;-76
2022/11/19 10:48:08;;;;;;;;;;;;;;;;;;4898326;29;20122;-76
2022/11/19 10:50:56;;;;;;;;;;;;;;;;;;4902718;29;19965;-76
2022/11/19 10:53:42;;;;;;;;;;;;;;;;;;4904086;29;19918;-75
2022/11/19 10:56:29;;;;;;;;;;;;;;;;;;4906920;29;20388;-76
2022/11/19 10:59:15;;;;;;;;;;;;;;;;;;4907844;29;19917;-76
2022/11/19 11:02:02;;;;;;;;;;;;;;;;;;4910408;29;19927;-76
2022/11/19 11:04:48;;;;;;;;;;;;;;;;;;4912284;29;19930;-76
2022/11/19 11:07:34;;;;;;;;;;;;;;;;;;4907616;29;20304;-76
2022/11/19 11:10:21;;;;;;;;;;;;;;;;;;4897650;29;19931;-76
2022/11/19 11:16:14;;;;;;;;;;;;;;;;;;4911911;29;19919;-76
2022/11/19 11:19:01;;;;;;;;;;;;;;;;;;4914471;29;19922;-75
2022/11/19 11:21:47;;;;;;;;;;;;;;;;;;4909264;29;19915;-76
2022/11/19 11:24:34;;;;;;;;;;;;;;;;;;4899047;29;20388;-77
2022/11/19 11:27:20;;;;;;;;;;;;;;;;;;4914703;29;19930;-76
2022/11/19 11:30:07;;;;;;;;;;;;;;;;;;4900226;29;20387;-77
2022/11/19 11:32:53;;;;;;;;;;;;;;;;;;4901850;29;19941;-76
2022/11/19 11:35:40;;;;;;;;;;;;;;;;;;4903269;29;19926;-76
2022/11/19 11:38:26;;;;;;;;;;;;;;;;;;4905361;29;20454;-77
2022/11/19 11:41:13;;;;;;;;;;;;;;;;;;4905102;29;19915;-77
2022/11/19 11:44:02;;;;;;;;;;;;;;;;;;4906448;29;19938;-78
2022/11/19 11:46:49;;;;;;;;;;;;;;;;;;4901807;29;20292;-77
2022/11/19 11:49:35;;;;;;;;;;;;;;;;;;4906891;29;19915;-77
2022/11/19 11:52:22;;;;;;;;;;;;;;;;;;4903224;29;20029;-77
2022/11/19 11:55:08;;;;;;;;;;;;;;;;;;4901132;29;20384;-77
2022/11/19 11:57:55;;;;;;;;;;;;;;;;;;4904706;29;19916;-77
2022/11/19 12:00:41;;;;;;;;;;;;;;;;;;4900243;29;20299;-77
2022/11/19 12:03:28;;;;;;;;;;;;;;;;;;4907765;29;19933;-76
2022/11/19 12:06:14;;;;;;;;;;;;;;;;;;4905222;29;20427;-77
2022/11/19 12:09:01;;;;;;;;;;;;;;;;;;4920803;29;19918;-78
2022/11/19 12:11:53;;;;;;;;;;;;;;;;;;4911299;29;19929;-77
2022/11/19 12:14:40;;;;;;;;;;;;;;;;;;4905510;29;19922;-76
2022/11/19 12:17:26;;;;;;;;;;;;;;;;;;4902057;29;19915;-76
2022/11/19 12:20:13;;;;;;;;;;;;;;;;;;4899333;29;19916;-76
2022/11/19 12:22:59;;;;;;;;;;;;;;;;;;4906486;29;19911;-77
2022/11/19 12:25:46;;;;;;;;;;;;;;;;;;4899111;29;19915;-77
2022/11/19 12:28:32;;;;;;;;;;;;;;;;;;4903877;29;19911;-77
2022/11/19 12:31:19;;;;;;;;;;;;;;;;;;4901425;29;19922;-77
2022/11/19 12:34:05;;;;;;;;;;;;;;;;;;4909975;29;19923;-76
2022/11/19 12:36:55;;;;;;;;;;;;;;;;;;4906721;29;20386;-76
2022/11/19 12:39:42;;;;;;;;;;;;;;;;;;4903938;29;19926;-76
2022/11/19 12:42:28;;;;;;;;;;;;;;;;;;4907327;29;19919;-77
2022/11/19 12:45:15;;;;;;;;;;;;;;;;;;4912341;29;19934;-77
2022/11/19 12:48:01;;;;;;;;;;;;;;;;;;4914263;29;20409;-76
2022/11/19 12:50:48;;;;;;;;;;;;;;;;;;4901860;29;19922;-76
2022/11/19 12:53:34;;;;;;;;;;;;;;;;;;4911387;29;20048;-77
2022/11/19 12:56:20;;;;;;;;;;;;;;;;;;4897896;29;19911;-76
2022/11/19 12:59:07;;;;;;;;;;;;;;;;;;4908955;29;20149;-76
2022/11/19 13:01:53;;;;;;;;;;;;;;;;;;4908330;29;19921;-76
2022/11/19 13:04:40;;;;;;;;;;;;;;;;;;4905804;29;19926;-76
2022/11/19 13:07:27;;;;;;;;;;;;;;;;;;4905144;29;19927;-77
2022/11/19 13:10:13;;;;;;;;;;;;;;;;;;4902137;29;19945;-77
2022/11/19 13:13:00;;;;;;;;;;;;;;;;;;4905805;29;19919;-76
2022/11/19 13:15:46;;;;;;;;;;;;;;;;;;4903176;29;19922;-77
2022/11/19 13:18:33;;;;;;;;;;;;;;;;;;4903827;29;20561;-76
2022/11/19 13:21:20;;;;;;;;;;;;;;;;;;4896071;29;19915;-76
2022/11/19 13:24:06;;;;;;;;;;;;;;;;;;4908693;29;19926;-77
2022/11/19 13:26:53;;;;;;;;;;;;;;;;;;4909758;29;19946;-76
2022/11/19 13:29:39;;;;;;;;;;;;;;;;;;4910092;29;20011;-76
2022/11/19 13:32:26;;;;;;;;;;;;;;;;;;4906696;29;19915;-72
2022/11/19 13:35:12;;;;;;;;;;;;;;;;;;4896713;29;19941;-72
2022/11/19 13:37:59;;;;;;;;;;;;;;;;;;4895552;29;19922;-72
2022/11/19 13:40:45;;;;;;;;;;;;;;;;;;4907954;29;19919;-72
2022/11/19 13:46:37;;;;;;;;;;;;;;;;;;4905877;29;19926;-72
2022/11/19 13:49:23;;;;;;;;;;;;;;;;;;4898765;29;19919;-71
2022/11/19 13:52:10;;;;;;;;;;;;;;;;;;4898174;29;19942;-72
2022/11/19 13:54:56;;;;;;;;;;;;;;;;;;4896441;29;19919;-71
2022/11/19 13:57:43;;;;;;;;;;;;;;;;;;4911070;29;19915;-72
2022/11/19 14:00:29;;;;;;;;;;;;;;;;;;4906905;29;19919;-72
2022/11/19 14:03:16;;;;;;;;;;;;;;;;;;4895169;29;19927;-72
2022/11/19 14:06:02;;;;;;;;;;;;;;;;;;4907378;29;19930;-71
2022/11/19 14:08:49;;;;;;;;;;;;;;;;;;4900617;29;19927;-72
2022/11/19 14:11:35;;;;;;;;;;;;;;;;;;4907400;29;19919;-72
2022/11/19 14:26:53;;;;;;;;;;;;;;;;;;4883479;29;20403;-72
2022/11/19 14:29:40;;;;;;;;;;;;;;;;;;4906632;29;19911;-72
2022/11/19 14:32:26;;;;;;;;;;;;;;;;;;4904618;29;20481;-72
2022/11/19 14:35:13;;;;;;;;;;;;;;;;;;4902263;29;19911;-72
2022/11/19 14:37:59;;;;;;;;;;;;;;;;;;4904355;29;19929;-72
2022/11/19 14:40:46;;;;;;;;;;;;;;;;;;4907352;29;20295;-71
2022/11/19 14:46:38;;;;;;;;;;;;;;;;;;4900701;29;19920;-71
2022/11/19 14:49:24;;;;;;;;;;;;;;;;;;4898690;29;19954;-71
2022/11/19 14:52:11;;;;;;;;;;;;;;;;;;4909024;29;19912;-71
2022/11/19 14:54:57;;;;;;;;;;;;;;;;;;4908937;29;20516;-71
2022/11/19 14:57:44;;;;;;;;;;;;;;;;;;4904202;29;20299;-71
2022/11/19 15:00:30;;;;;;;;;;;;;;;;;;4895208;29;19922;-71
2022/11/19 15:03:17;;;;;;;;;;;;;;;;;;4906830;29;19930;-71
2022/11/19 15:06:03;;;;;;;;;;;;;;;;;;4901810;29;20295;-71
2022/11/19 15:08:50;;;;;;;;;;;;;;;;;;4901125;29;19919;-71
2022/11/19 15:11:36;;;;;;;;;;;;;;;;;;4901165;29;20392;-71
2022/11/19 15:14:23;;;;;;;;;;;;;;;;;;4909946;29;19918;-71
2022/11/19 15:17:09;;;;;;;;;;;;;;;;;;4905787;29;20315;-71
2022/11/19 15:19:56;;;;;;;;;;;;;;;;;;4907825;29;19915;-71
2022/11/19 15:22:42;;;;;;;;;;;;;;;;;;4907000;29;20303;-71
2022/11/19 15:25:29;;;;;;;;;;;;;;;;;;4902350;29;20395;-71
2022/11/19 15:28:15;;;;;;;;;;;;;;;;;;4904483;29;19919;-71
2022/11/19 15:31:02;;;;;;;;;;;;;;;;;;4899124;29;20296;-71
2022/11/19 15:33:48;;;;;;;;;;;;;;;;;;4901850;29;19920;-71
2022/11/19 15:36:35;;;;;;;;;;;;;;;;;;4900481;29;20479;-71
2022/11/19 15:39:21;;;;;;;;;;;;;;;;;;4899970;29;20387;-71
2022/11/19 15:42:08;;;;;;;;;;;;;;;;;;4907584;29;20468;-71
2022/11/19 15:44:54;;;;;;;;;;;;;;;;;;4910913;29;19915;-71
2022/11/19 15:47:41;;;;;;;;;;;;;;;;;;4901931;29;19930;-71
2022/11/19 15:50:27;;;;;;;;;;;;;;;;;;4905153;29;19919;-71
2022/11/19 15:53:14;;;;;;;;;;;;;;;;;;4907319;29;19927;-71
2022/11/19 15:56:00;;;;;;;;;;;;;;;;;;4896242;29;20160;-71
2022/11/19 15:58:47;;;;;;;;;;;;;;;;;;4904832;29;19915;-71
2022/11/19 16:01:33;;;;;;;;;;;;;;;;;;4907471;29;20320;-72
2022/11/19 16:04:20;;;;;;;;;;;;;;;;;;4904410;29;19924;-71
2022/11/19 16:07:06;;;;;;;;;;;;;;;;;;4903898;29;19919;-71
2022/11/19 16:09:53;;;;;;;;;;;;;;;;;;4901907;29;19916;-71
2022/11/19 16:17:31;;;;;;;;;;;;;;;;;;4904210;29;19915;-72
2022/11/19 16:18:54;;;;;;;;;;;;;;;;;;4906157;29;20438;-71
2022/11/19 16:21:40;;;;;;;;;;;;;;;;;;4908706;29;19918;-71
2022/11/19 16:27:45;;;;;;;;;;;;;;;;;;4894128;29;19930;-71
2022/11/19 16:30:32;;;;;;;;;;;;;;;;;;4912916;29;20394;-71
2022/11/19 16:33:18;;;;;;;;;;;;;;;;;;4912274;29;19922;-72
2022/11/19 16:36:05;;;;;;;;;;;;;;;;;;4906087;29;19926;-71
2022/11/19 16:38:51;;;;;;;;;;;;;;;;;;4910557;29;19919;-71
2022/11/19 16:44:43;;;;;;;;;;;;;;;;;;4907169;29;20319;-71
2022/11/19 16:47:29;;;;;;;;;;;;;;;;;;4909007;29;19927;-71
2022/11/19 16:50:16;;;;;;;;;;;;;;;;;;4908780;29;20020;-71
2022/11/19 16:53:02;;;;;;;;;;;;;;;;;;4902578;29;19915;-71
2022/11/19 16:55:49;;;;;;;;;;;;;;;;;;4900339;29;19915;-71
2022/11/19 16:58:35;;;;;;;;;;;;;;;;;;4911156;29;20295;-72
2022/11/19 17:01:22;;;;;;;;;;;;;;;;;;4905278;29;19915;-71
2022/11/19 17:04:08;;;;;;;;;;;;;;;;;;4897096;29;20304;-71
2022/11/19 17:06:55;;;;;;;;;;;;;;;;;;4901906;29;19930;-71
2022/11/19 17:09:46;;;;;;;;;;;;;;;;;;4899236;29;19911;-71
2022/11/19 17:12:32;;;;;;;;;;;;;;;;;;4905478;29;19915;-71
2022/11/19 17:15:19;;;;;;;;;;;;;;;;;;4899320;29;20261;-71
2022/11/19 17:18:05;;;;;;;;;;;;;;;;;;4895140;29;19912;-71
2022/11/19 17:20:52;;;;;;;;;;;;;;;;;;4902974;29;19919;-71
2022/11/19 17:23:38;;;;;;;;;;;;;;;;;;4902758;29;19938;-71
2022/11/19 17:26:26;;;;;;;;;;;;;;;;;;4902698;29;19930;-71
2022/11/19 17:29:12;;;;;;;;;;;;;;;;;;4900552;29;19958;-72
2022/11/19 17:31:59;;;;;;;;;;;;;;;;;;4907722;29;20407;-71
2022/11/19 17:34:45;;;;;;;;;;;;;;;;;;4902281;29;19919;-72
2022/11/19 17:37:32;;;;;;;;;;;;;;;;;;4909289;29;19912;-71
2022/11/19 17:40:18;;;;;;;;;;;;;;;;;;4909393;29;19911;-71
2022/11/19 17:46:10;;;;;;;;;;;;;;;;;;4908580;29;19921;-72
2022/11/19 17:48:56;;;;;;;;;;;;;;;;;;4908111;29;20315;-72
2022/11/19 17:51:43;;;;;;;;;;;;;;;;;;4907411;29;20414;-72
2022/11/19 17:54:30;;;;;;;;;;;;;;;;;;4905106;29;19911;-71
2022/11/19 17:57:16;;;;;;;;;;;;;;;;;;4910319;29;19912;-72
2022/11/19 18:00:03;;;;;;;;;;;;;;;;;;4908820;29;20339;-72
2022/11/19 18:02:49;;;;;;;;;;;;;;;;;;4908814;29;19971;-72
2022/11/19 18:05:36;;;;;;;;;;;;;;;;;;4895707;29;19926;-72
2022/11/19 18:08:22;;;;;;;;;;;;;;;;;;4899242;29;19935;-72
2022/11/19 18:11:09;;;;;;;;;;;;;;;;;;4900438;29;19919;-72
2022/11/19 18:13:58;;;;;;;;;;;;;;;;;;4902745;29;19915;-72
2022/11/19 18:16:45;;;;;;;;;;;;;;;;;;4911541;29;19915;-72
2022/11/19 18:19:32;;;;;;;;;;;;;;;;;;4903741;29;19918;-72
2022/11/19 18:22:18;;;;;;;;;;;;;;;;;;4908631;29;19934;-72
2022/11/19 18:25:05;;;;;;;;;;;;;;;;;;4904151;29;19915;-72
2022/11/19 18:27:51;;;;;;;;;;;;;;;;;;4912212;29;19943;-72
2022/11/19 18:30:38;;;;;;;;;;;;;;;;;;4899500;29;19911;-72
2022/11/19 18:33:24;;;;;;;;;;;;;;;;;;4901034;29;19923;-72
2022/11/19 18:36:11;;;;;;;;;;;;;;;;;;4903379;29;19939;-71
2022/11/19 18:38:57;;;;;;;;;;;;;;;;;;4906057;29;19911;-72
2022/11/19 18:41:44;;;;;;;;;;;;;;;;;;4909729;29;20299;-72
2022/11/19 18:44:33;;;;;;;;;;;;;;;;;;4897645;29;19930;-72
2022/11/19 18:47:22;;;;;;;;;;;;;;;;;;4907563;29;20318;-71
2022/11/19 18:50:08;;;;;;;;;;;;;;;;;;4899580;29;19926;-72
2022/11/19 18:52:55;;;;;;;;;;;;;;;;;;4914111;29;19942;-72
2022/11/19 18:55:41;;;;;;;;;;;;;;;;;;4897503;29;19923;-72
2022/11/19 18:58:27;;;;;;;;;;;;;;;;;;4905909;29;20280;-72
2022/11/19 19:01:15;;;;;;;;;;;;;;;;;;4909289;29;20126;-72
2022/11/19 19:04:02;;;;;;;;;;;;;;;;;;4903547;29;19930;-72
2022/11/19 19:06:48;;;;;;;;;;;;;;;;;;4905589;29;19923;-72
2022/11/19 19:09:36;;;;;;;;;;;;;;;;;;4898006;29;19916;-72
2022/11/19 19:12:22;;;;;;;;;;;;;;;;;;4896770;29;19918;-72
2022/11/19 19:15:09;;;;;;;;;;;;;;;;;;4906506;29;19942;-72
2022/11/19 19:17:55;;;;;;;;;;;;;;;;;;4911617;29;19919;-72
2022/11/19 19:20:42;;;;;;;;;;;;;;;;;;4909579;29;20280;-72
2022/11/19 19:23:28;;;;;;;;;;;;;;;;;;4901615;29;19916;-72
2022/11/19 19:26:15;;;;;;;;;;;;;;;;;;4908664;29;19915;-72
2022/11/19 19:29:01;;;;;;;;;;;;;;;;;;4906966;29;19925;-72
2022/11/19 19:31:47;;;;;;;;;;;;;;;;;;4907006;29;20595;-72
2022/11/19 19:34:35;;;;;;;;;;;;;;;;;;4907028;29;19911;-72
2022/11/19 19:37:21;;;;;;;;;;;;;;;;;;4906965;29;19934;-71
2022/11/19 19:40:08;;;;;;;;;;;;;;;;;;4909916;29;19941;-72
2022/11/19 19:42:54;;;;;;;;;;;;;;;;;;4905822;29;19919;-72
2022/11/19 19:45:41;;;;;;;;;;;;;;;;;;4908095;29;19915;-72